createdAt,value
2023-02-17T00:00:22.434Z,97.50
2023-02-17T00:00:54.395Z,97.50
2023-02-17T00:01:32.718Z,97.60
2023-02-17T00:02:05.136Z,97.60
2023-02-17T00:02:37.913Z,97.60
2023-02-17T00:03:10.059Z,97.90
2023-02-17T00:03:41.935Z,97.60
2023-02-17T00:04:13.769Z,97.60
2023-02-17T00:04:45.584Z,97.60
2023-02-17T00:05:17.469Z,97.60
2023-02-17T00:05:51.022Z,97.60
2023-02-17T00:06:26.000Z,97.60
2023-02-17T00:06:58.084Z,97.60
2023-02-17T00:07:31.819Z,97.70
2023-02-17T00:08:03.581Z,97.70
2023-02-17T00:08:35.684Z,97.60
2023-02-17T00:09:07.580Z,97.90
2023-02-17T00:09:39.465Z,97.70
2023-02-17T00:10:11.300Z,97.70
2023-02-17T00:10:43.178Z,97.70
2023-02-17T00:11:15.638Z,97.70
2023-02-17T00:11:47.427Z,97.90
2023-02-17T00:12:19.377Z,97.70
2023-02-17T00:12:51.153Z,97.80
2023-02-17T00:13:22.962Z,97.80
2023-02-17T00:13:56.417Z,98.00
2023-02-17T00:14:28.587Z,98.60
2023-02-17T00:15:00.326Z,97.80
2023-02-17T00:15:32.236Z,98.10
2023-02-17T00:16:09.126Z,97.80
2023-02-17T00:16:41.322Z,97.80
2023-02-17T00:17:13.127Z,97.80
2023-02-17T00:17:44.897Z,97.80
2023-02-17T00:18:16.685Z,98.10
2023-02-17T00:18:53.465Z,97.90
2023-02-17T00:19:25.779Z,97.80
2023-02-17T00:19:57.585Z,98.10
2023-02-17T00:20:29.689Z,98.10
2023-02-17T00:21:10.369Z,97.90
2023-02-17T00:21:42.170Z,98.10
2023-02-17T00:22:14.096Z,97.90
2023-02-17T00:22:45.950Z,97.90
2023-02-17T00:23:18.109Z,97.90
2023-02-17T00:23:51.181Z,97.90
2023-02-17T00:24:24.530Z,98.00
2023-02-17T00:24:56.379Z,98.00
2023-02-17T00:25:28.246Z,98.00
2023-02-17T00:25:59.985Z,98.10
2023-02-17T00:26:31.703Z,98.00
2023-02-17T00:27:03.966Z,98.00
2023-02-17T00:27:35.699Z,98.00
2023-02-17T00:28:07.499Z,98.10
2023-02-17T00:28:39.293Z,98.00
2023-02-17T00:29:11.096Z,98.30
2023-02-17T00:29:42.944Z,98.00
2023-02-17T00:30:14.906Z,98.00
2023-02-17T00:30:46.706Z,98.00
2023-02-17T00:31:23.195Z,98.10
2023-02-17T00:31:56.197Z,98.10
2023-02-17T00:32:28.209Z,98.10
2023-02-17T00:33:00.518Z,98.10
2023-02-17T00:33:32.374Z,97.70
2023-02-17T00:34:04.123Z,98.10
2023-02-17T00:34:36.540Z,98.20
2023-02-17T00:35:08.368Z,98.40
2023-02-17T00:35:41.608Z,98.10
2023-02-17T00:36:17.932Z,98.10
2023-02-17T00:36:50.013Z,98.20
2023-02-17T00:37:22.403Z,98.20
2023-02-17T00:37:54.152Z,98.20
2023-02-17T00:38:25.980Z,98.20
2023-02-17T00:38:59.083Z,98.20
2023-02-17T00:39:30.877Z,98.20
2023-02-17T00:40:02.612Z,98.20
2023-02-17T00:40:34.361Z,98.30
2023-02-17T00:41:07.149Z,98.30
2023-02-17T00:41:38.954Z,98.30
2023-02-17T00:42:10.896Z,98.30
2023-02-17T00:42:42.674Z,98.30
2023-02-17T00:43:14.568Z,98.50
2023-02-17T00:43:47.789Z,98.30
2023-02-17T00:44:24.056Z,98.40
2023-02-17T00:44:57.050Z,98.60
2023-02-17T00:45:28.891Z,98.40
2023-02-17T00:46:04.173Z,98.40
2023-02-17T00:46:36.264Z,98.40
2023-02-17T00:47:08.196Z,98.40
2023-02-17T00:47:39.963Z,98.40
2023-02-17T00:48:11.731Z,98.60
2023-02-17T00:48:43.837Z,98.50
2023-02-17T00:49:20.121Z,98.50
2023-02-17T00:49:51.884Z,98.40
2023-02-17T00:50:23.690Z,98.50
2023-02-17T00:50:55.486Z,98.70
2023-02-17T00:51:27.309Z,98.50
2023-02-17T00:52:03.237Z,98.40
2023-02-17T00:52:38.315Z,98.60
2023-02-17T00:53:10.500Z,98.40
2023-02-17T00:53:42.593Z,98.40
2023-02-17T00:54:15.574Z,98.70
2023-02-17T00:54:47.367Z,98.40
2023-02-17T00:55:19.180Z,98.40
2023-02-17T00:55:51.105Z,98.40
2023-02-17T00:56:22.886Z,98.50
2023-02-17T00:56:54.970Z,98.50
2023-02-17T00:57:32.127Z,98.50
2023-02-17T00:58:04.006Z,98.40
2023-02-17T00:58:36.691Z,98.50
2023-02-17T00:59:09.436Z,98.40
2023-02-17T00:59:41.289Z,98.50
2023-02-17T01:00:13.786Z,98.50
2023-02-17T01:00:45.759Z,98.50
2023-02-17T01:01:17.681Z,98.50
2023-02-17T01:01:49.553Z,98.50
2023-02-17T01:02:21.401Z,98.70
2023-02-17T01:02:53.162Z,98.60
2023-02-17T01:03:26.313Z,98.50
2023-02-17T01:03:58.956Z,98.60
2023-02-17T01:04:30.791Z,98.50
2023-02-17T01:05:02.594Z,98.60
2023-02-17T01:05:34.995Z,98.60
2023-02-17T01:06:18.427Z,98.60
2023-02-17T01:06:50.300Z,98.60
2023-02-17T01:07:22.154Z,98.80
2023-02-17T01:07:53.960Z,98.70
2023-02-17T01:08:26.038Z,98.60
2023-02-17T01:08:57.808Z,98.60
2023-02-17T01:09:29.639Z,98.50
2023-02-17T01:10:01.507Z,98.60
2023-02-17T01:10:35.927Z,98.70
2023-02-17T01:11:07.771Z,98.70
2023-02-17T01:11:40.792Z,98.70
2023-02-17T01:12:12.918Z,98.60
2023-02-17T01:12:44.756Z,98.90
2023-02-17T01:13:17.836Z,98.90
2023-02-17T01:13:49.957Z,98.70
2023-02-17T01:14:21.832Z,99.00
2023-02-17T01:14:53.616Z,98.70
2023-02-17T01:15:25.418Z,98.70
2023-02-17T01:15:57.272Z,98.70
2023-02-17T01:16:35.113Z,98.70
2023-02-17T01:17:07.012Z,98.80
2023-02-17T01:17:38.798Z,98.70
2023-02-17T01:18:10.737Z,98.70
2023-02-17T01:18:42.486Z,98.80
2023-02-17T01:19:19.062Z,98.90
2023-02-17T01:19:53.208Z,98.80
2023-02-17T01:20:25.074Z,98.70
2023-02-17T01:20:56.843Z,98.80
2023-02-17T01:21:30.188Z,98.80
2023-02-17T01:22:02.375Z,98.80
2023-02-17T01:22:34.731Z,98.90
2023-02-17T01:23:08.280Z,98.80
2023-02-17T01:23:40.716Z,98.80
2023-02-17T01:24:13.617Z,98.90
2023-02-17T01:24:45.378Z,98.80
2023-02-17T01:25:17.181Z,98.90
2023-02-17T01:25:50.677Z,98.90
2023-02-17T01:26:24.802Z,98.80
2023-02-17T01:26:56.584Z,99.10
2023-02-17T01:27:30.054Z,99.10
2023-02-17T01:28:01.800Z,98.90
2023-02-17T01:28:33.706Z,98.90
2023-02-17T01:29:07.123Z,98.80
2023-02-17T01:29:38.905Z,98.80
2023-02-17T01:30:11.152Z,98.90
2023-02-17T01:30:43.048Z,98.90
2023-02-17T01:31:16.219Z,98.90
2023-02-17T01:31:48.095Z,99.10
2023-02-17T01:32:19.826Z,98.90
2023-02-17T01:32:52.396Z,98.90
2023-02-17T01:33:24.238Z,98.90
2023-02-17T01:33:58.975Z,98.90
2023-02-17T01:34:31.024Z,99.10
2023-02-17T01:35:04.711Z,99.00
2023-02-17T01:35:40.058Z,98.90
2023-02-17T01:36:14.556Z,99.00
2023-02-17T01:36:46.466Z,99.00
2023-02-17T01:37:18.203Z,99.00
2023-02-17T01:37:49.970Z,99.00
2023-02-17T01:38:21.903Z,98.90
2023-02-17T01:38:55.302Z,99.00
2023-02-17T01:39:27.035Z,99.00
2023-02-17T01:39:58.852Z,99.00
2023-02-17T01:40:31.359Z,99.20
2023-02-17T01:41:04.227Z,99.00
2023-02-17T01:41:36.570Z,99.00
2023-02-17T01:42:19.942Z,99.00
2023-02-17T01:42:53.596Z,99.00
2023-02-17T01:43:25.784Z,99.00
2023-02-17T01:44:25.503Z,99.10
2023-02-17T01:45:19.701Z,99.10
2023-02-17T01:46:00.400Z,99.00
2023-02-17T01:46:33.759Z,99.00
2023-02-17T01:47:05.590Z,99.10
2023-02-17T01:47:37.616Z,99.10
2023-02-17T01:48:16.802Z,99.30
2023-02-17T01:48:51.168Z,99.10
2023-02-17T01:49:28.448Z,99.10
2023-02-17T01:50:00.320Z,98.20
2023-02-17T01:50:37.079Z,99.30
2023-02-17T01:51:11.549Z,99.10
2023-02-17T01:51:45.786Z,99.10
2023-02-17T01:52:22.876Z,99.30
2023-02-17T01:52:58.126Z,99.00
2023-02-17T01:53:41.042Z,99.30
2023-02-17T01:54:26.630Z,99.10
2023-02-17T01:55:04.431Z,99.20
2023-02-17T01:55:40.079Z,99.20
2023-02-17T01:56:15.268Z,99.20
2023-02-17T01:56:49.279Z,99.10
2023-02-17T01:57:25.401Z,99.20
2023-02-17T01:58:02.436Z,99.30
2023-02-17T01:58:34.788Z,99.10
2023-02-17T01:59:17.076Z,99.50
2023-02-17T01:59:49.299Z,99.20
2023-02-17T02:00:23.037Z,99.30
2023-02-17T02:01:03.417Z,99.20
2023-02-17T02:01:36.029Z,99.30
2023-02-17T02:02:08.813Z,99.40
2023-02-17T02:02:44.104Z,99.30
2023-02-17T02:03:19.460Z,99.40
2023-02-17T02:03:53.423Z,99.20
2023-02-17T02:04:29.209Z,99.20
2023-02-17T02:05:01.558Z,99.20
2023-02-17T02:05:35.025Z,99.20
2023-02-17T02:06:16.411Z,99.30
2023-02-17T02:06:48.323Z,99.30
2023-02-17T02:07:27.325Z,99.20
2023-02-17T02:07:59.136Z,99.50
2023-02-17T02:08:41.346Z,99.30
2023-02-17T02:09:22.197Z,99.20
2023-02-17T02:09:56.290Z,99.20
2023-02-17T02:10:28.087Z,99.20
2023-02-17T02:11:01.228Z,99.30
2023-02-17T02:11:34.046Z,99.30
2023-02-17T02:12:22.282Z,98.50
2023-02-17T02:12:54.149Z,99.20
2023-02-17T02:13:26.016Z,99.30
2023-02-17T02:13:59.534Z,99.40
2023-02-17T02:14:31.472Z,99.30
2023-02-17T02:15:11.935Z,99.30
2023-02-17T02:15:57.653Z,99.20
2023-02-17T02:16:34.557Z,99.40
2023-02-17T02:17:34.438Z,99.40
2023-02-17T02:18:14.718Z,99.40
2023-02-17T02:18:55.384Z,99.30
2023-02-17T02:19:51.902Z,99.30
2023-02-17T02:20:57.497Z,99.30
2023-02-17T02:22:05.776Z,99.30
2023-02-17T02:22:56.779Z,99.30
2023-02-17T02:23:52.962Z,99.40
2023-02-17T02:24:47.940Z,99.30
2023-02-17T02:25:49.312Z,99.30
2023-02-17T02:26:45.198Z,99.30
2023-02-17T02:27:46.801Z,99.30
2023-02-17T02:28:25.867Z,99.30
2023-02-17T02:29:22.842Z,99.30
2023-02-17T02:30:15.515Z,99.30
2023-02-17T02:31:09.772Z,99.30
2023-02-17T02:32:08.931Z,99.50
2023-02-17T02:33:08.650Z,99.30
2023-02-17T02:33:48.896Z,99.30
2023-02-17T02:34:30.426Z,99.30
2023-02-17T02:35:14.391Z,99.30
2023-02-17T02:36:01.096Z,99.30
2023-02-17T02:36:43.545Z,99.30
2023-02-17T02:37:24.945Z,99.50
2023-02-17T02:38:07.742Z,99.30
2023-02-17T02:38:53.667Z,99.50
2023-02-17T02:39:32.675Z,99.30
2023-02-17T02:40:11.173Z,99.40
2023-02-17T02:40:53.682Z,99.30
2023-02-17T02:41:32.572Z,99.30
2023-02-17T02:42:09.840Z,99.30
2023-02-17T02:42:46.101Z,99.40
2023-02-17T02:43:18.828Z,99.30
2023-02-17T02:43:51.804Z,99.30
2023-02-17T02:44:23.591Z,99.30
2023-02-17T02:44:56.461Z,99.30
2023-02-17T02:45:28.532Z,99.60
2023-02-17T02:46:00.420Z,99.30
2023-02-17T02:46:32.213Z,99.40
2023-02-17T02:47:49.931Z,99.30
2023-02-17T02:48:31.162Z,99.30
2023-02-17T02:49:04.655Z,99.30
2023-02-17T02:49:37.168Z,99.40
2023-02-17T02:50:13.924Z,99.40
2023-02-17T02:50:54.676Z,99.30
2023-02-17T02:51:39.755Z,99.30
2023-02-17T02:52:40.884Z,99.30
2023-02-17T02:53:42.020Z,99.40
2023-02-17T02:54:29.901Z,99.30
2023-02-17T02:55:12.058Z,99.30
2023-02-17T02:55:52.579Z,99.30
2023-02-17T02:56:49.021Z,99.30
2023-02-17T02:57:29.152Z,99.30
2023-02-17T02:58:35.252Z,99.30
2023-02-17T02:59:25.197Z,99.30
2023-02-17T03:00:00.954Z,99.30
2023-02-17T03:00:48.716Z,99.30
2023-02-17T03:01:41.892Z,99.40
2023-02-17T03:02:27.221Z,99.30
2023-02-17T03:03:02.181Z,99.30
2023-02-17T03:03:41.146Z,99.30
2023-02-17T03:04:38.502Z,99.30
2023-02-17T03:05:34.004Z,99.50
2023-02-17T03:06:12.881Z,99.20
2023-02-17T03:06:53.132Z,99.30
2023-02-17T03:07:34.940Z,99.30
2023-02-17T03:08:20.408Z,99.30
2023-02-17T03:08:59.131Z,99.30
2023-02-17T03:09:31.707Z,99.30
2023-02-17T03:10:05.857Z,99.30
2023-02-17T03:10:47.629Z,98.60
2023-02-17T03:11:32.308Z,99.20
2023-02-17T03:12:08.046Z,99.40
2023-02-17T03:12:40.452Z,99.30
2023-02-17T03:13:12.332Z,99.30
2023-02-17T03:13:44.188Z,99.30
2023-02-17T03:14:22.309Z,99.30
2023-02-17T03:15:06.124Z,99.30
2023-02-17T03:15:37.975Z,99.20
2023-02-17T03:16:18.201Z,99.40
2023-02-17T03:16:52.264Z,99.20
2023-02-17T03:17:24.073Z,99.20
2023-02-17T03:17:59.937Z,99.30
2023-02-17T03:18:35.686Z,99.20
2023-02-17T03:19:09.524Z,99.20
2023-02-17T03:19:45.427Z,99.20
2023-02-17T03:20:17.475Z,99.20
2023-02-17T03:21:00.636Z,99.50
2023-02-17T03:21:47.333Z,99.10
2023-02-17T03:22:32.828Z,99.10
2023-02-17T03:23:06.135Z,99.10
2023-02-17T03:23:38.365Z,99.30
2023-02-17T03:24:10.544Z,99.40
2023-02-17T03:24:42.325Z,99.10
2023-02-17T03:25:15.861Z,99.20
2023-02-17T03:25:48.632Z,99.10
2023-02-17T03:26:20.508Z,99.10
2023-02-17T03:26:52.618Z,99.10
2023-02-17T03:27:24.428Z,99.10
2023-02-17T03:27:56.559Z,99.10
2023-02-17T03:28:28.440Z,99.20
2023-02-17T03:29:01.349Z,99.10
2023-02-17T03:29:34.178Z,99.10
2023-02-17T03:30:06.701Z,99.10
2023-02-17T03:30:38.679Z,99.00
2023-02-17T03:31:10.566Z,99.00
2023-02-17T03:31:42.872Z,99.00
2023-02-17T03:32:14.775Z,99.00
2023-02-17T03:32:47.108Z,99.00
2023-02-17T03:33:18.976Z,99.00
2023-02-17T03:33:50.972Z,99.10
2023-02-17T03:34:22.902Z,99.00
2023-02-17T03:34:54.724Z,99.00
2023-02-17T03:35:28.863Z,99.00
2023-02-17T03:36:00.691Z,99.00
2023-02-17T03:36:32.574Z,99.00
2023-02-17T03:37:04.413Z,99.00
2023-02-17T03:37:36.343Z,99.00
2023-02-17T03:38:08.142Z,99.00
2023-02-17T03:38:40.207Z,99.20
2023-02-17T03:39:11.974Z,98.90
2023-02-17T03:39:43.750Z,99.20
2023-02-17T03:40:15.578Z,99.20
2023-02-17T03:40:47.343Z,98.90
2023-02-17T03:41:19.103Z,99.00
2023-02-17T03:41:51.666Z,98.90
2023-02-17T03:42:23.878Z,99.10
2023-02-17T03:42:57.735Z,98.90
2023-02-17T03:43:29.488Z,98.90
2023-02-17T03:44:01.719Z,98.90
2023-02-17T03:44:33.577Z,99.00
2023-02-17T03:45:05.723Z,99.00
2023-02-17T03:45:37.962Z,98.90
2023-02-17T03:46:14.845Z,98.80
2023-02-17T03:46:47.456Z,98.90
2023-02-17T03:47:19.277Z,98.80
2023-02-17T03:47:51.084Z,98.80
2023-02-17T03:48:22.827Z,99.00
2023-02-17T03:48:55.173Z,98.80
2023-02-17T03:49:26.939Z,99.10
2023-02-17T03:49:58.675Z,98.80
2023-02-17T03:50:31.245Z,98.80
2023-02-17T03:51:21.140Z,98.00
2023-02-17T03:51:53.167Z,98.80
2023-02-17T03:52:24.984Z,98.80
2023-02-17T03:52:56.800Z,98.80
2023-02-17T03:53:28.650Z,98.80
2023-02-17T03:54:00.428Z,98.80
2023-02-17T03:54:32.371Z,97.90
2023-02-17T03:55:04.383Z,98.90
2023-02-17T03:55:36.204Z,98.70
2023-02-17T03:56:08.815Z,98.70
2023-02-17T03:56:40.589Z,98.70
2023-02-17T03:57:12.570Z,98.80
2023-02-17T03:57:44.579Z,98.90
2023-02-17T03:58:16.284Z,98.70
2023-02-17T03:58:48.180Z,98.70
2023-02-17T03:59:20.120Z,98.70
2023-02-17T03:59:51.892Z,98.70
2023-02-17T04:00:23.728Z,98.70
2023-02-17T04:00:55.873Z,98.70
2023-02-17T04:01:27.714Z,98.70
2023-02-17T04:01:59.531Z,98.60
2023-02-17T04:02:31.306Z,98.60
2023-02-17T04:03:03.253Z,98.70
2023-02-17T04:03:35.917Z,98.70
2023-02-17T04:04:07.853Z,98.60
2023-02-17T04:04:39.766Z,98.60
2023-02-17T04:05:11.767Z,99.00
2023-02-17T04:05:44.872Z,98.60
2023-02-17T04:06:16.785Z,98.60
2023-02-17T04:06:48.527Z,98.60
2023-02-17T04:07:20.324Z,98.60
2023-02-17T04:07:52.148Z,98.60
2023-02-17T04:08:24.397Z,98.60
2023-02-17T04:08:56.106Z,98.50
2023-02-17T04:09:28.184Z,98.60
2023-02-17T04:10:00.002Z,98.60
2023-02-17T04:10:31.732Z,98.60
2023-02-17T04:11:05.566Z,98.50
2023-02-17T04:11:37.772Z,98.50
2023-02-17T04:12:09.589Z,98.50
2023-02-17T04:12:41.405Z,98.50
2023-02-17T04:13:13.112Z,98.50
2023-02-17T04:13:44.937Z,98.50
2023-02-17T04:14:16.776Z,98.50
2023-02-17T04:14:48.514Z,98.50
2023-02-17T04:15:20.387Z,98.70
2023-02-17T04:15:53.215Z,98.70
2023-02-17T04:16:25.140Z,98.60
2023-02-17T04:16:56.930Z,98.50
2023-02-17T04:17:28.701Z,98.50
2023-02-17T04:18:00.506Z,98.50
2023-02-17T04:18:33.120Z,98.60
2023-02-17T04:19:06.517Z,98.40
2023-02-17T04:19:38.330Z,98.40
2023-02-17T04:20:10.827Z,98.70
2023-02-17T04:20:43.904Z,98.40
2023-02-17T04:21:15.708Z,98.50
2023-02-17T04:21:47.428Z,98.40
2023-02-17T04:22:19.239Z,98.40
2023-02-17T04:22:50.981Z,98.60
2023-02-17T04:23:23.086Z,98.40
2023-02-17T04:23:55.653Z,98.40
2023-02-17T04:24:29.385Z,98.40
2023-02-17T04:25:01.170Z,98.40
2023-02-17T04:25:37.130Z,98.40
2023-02-17T04:26:09.885Z,98.50
2023-02-17T04:26:41.655Z,98.40
2023-02-17T04:27:13.466Z,98.40
2023-02-17T04:27:45.215Z,98.60
2023-02-17T04:28:17.972Z,98.40
2023-02-17T04:28:49.694Z,98.30
2023-02-17T04:29:21.441Z,98.30
2023-02-17T04:29:53.203Z,98.50
2023-02-17T04:30:25.000Z,98.30
2023-02-17T04:30:58.705Z,98.30
2023-02-17T04:31:30.774Z,98.30
2023-02-17T04:32:02.875Z,98.40
2023-02-17T04:32:34.691Z,98.40
2023-02-17T04:33:06.642Z,98.40
2023-02-17T04:33:38.384Z,98.50
2023-02-17T04:34:10.236Z,98.30
2023-02-17T04:34:42.034Z,98.30
2023-02-17T04:35:13.813Z,98.40
2023-02-17T04:35:47.398Z,98.50
2023-02-17T04:36:22.069Z,98.30
2023-02-17T04:36:53.825Z,98.30
2023-02-17T04:37:25.618Z,98.30
2023-02-17T04:37:57.437Z,98.30
2023-02-17T04:38:32.013Z,98.30
2023-02-17T04:39:03.858Z,98.30
2023-02-17T04:39:35.706Z,98.30
2023-02-17T04:40:10.289Z,98.50
2023-02-17T04:40:42.909Z,98.30
2023-02-17T04:41:15.035Z,98.30
2023-02-17T04:41:46.819Z,98.30
2023-02-17T04:42:18.666Z,98.30
2023-02-17T04:42:50.441Z,98.40
2023-02-17T04:43:24.354Z,98.20
2023-02-17T04:43:56.097Z,98.20
2023-02-17T04:44:27.986Z,98.30
2023-02-17T04:44:59.713Z,98.30
2023-02-17T04:45:31.612Z,98.20
2023-02-17T04:46:03.574Z,98.20
2023-02-17T04:46:35.416Z,98.20
2023-02-17T04:47:07.264Z,98.30
2023-02-17T04:47:39.370Z,98.40
2023-02-17T04:48:11.152Z,98.20
2023-02-17T04:48:43.047Z,98.20
2023-02-17T04:49:15.453Z,98.20
2023-02-17T04:49:47.172Z,98.20
2023-02-17T04:50:20.904Z,98.40
2023-02-17T04:50:52.905Z,98.20
2023-02-17T04:51:24.753Z,98.20
2023-02-17T04:51:56.561Z,98.20
2023-02-17T04:52:28.413Z,98.20
2023-02-17T04:53:00.172Z,98.20
2023-02-17T04:53:32.095Z,98.20
2023-02-17T04:54:04.020Z,98.20
2023-02-17T04:54:35.935Z,98.20
2023-02-17T04:55:08.691Z,98.20
2023-02-17T04:55:41.364Z,98.20
2023-02-17T04:56:13.137Z,98.20
2023-02-17T04:56:44.965Z,98.10
2023-02-17T04:57:16.736Z,98.20
2023-02-17T04:57:48.542Z,98.20
2023-02-17T04:58:21.137Z,98.10
2023-02-17T04:58:52.923Z,98.20
2023-02-17T04:59:25.660Z,98.10
2023-02-17T04:59:57.595Z,98.10
2023-02-17T05:00:29.354Z,98.10
2023-02-17T05:01:01.179Z,97.60
2023-02-17T05:01:32.982Z,98.40
2023-02-17T05:02:05.113Z,98.10
2023-02-17T05:02:37.107Z,98.10
2023-02-17T05:03:08.924Z,98.10
2023-02-17T05:03:40.792Z,98.10
2023-02-17T05:04:12.568Z,98.20
2023-02-17T05:04:46.016Z,98.10
2023-02-17T05:05:18.967Z,98.20
2023-02-17T05:05:50.915Z,98.30
2023-02-17T05:06:22.777Z,98.10
2023-02-17T05:06:54.621Z,98.30
2023-02-17T05:07:26.474Z,98.20
2023-02-17T05:07:58.417Z,98.10
2023-02-17T05:08:30.269Z,98.10
2023-02-17T05:09:02.060Z,98.10
2023-02-17T05:09:33.877Z,98.30
2023-02-17T05:10:05.992Z,98.10
2023-02-17T05:10:37.796Z,98.10
2023-02-17T05:11:09.570Z,98.10
2023-02-17T05:11:41.301Z,98.30
2023-02-17T05:12:13.346Z,98.10
2023-02-17T05:12:45.248Z,98.10
2023-02-17T05:13:17.107Z,98.10
2023-02-17T05:13:48.917Z,98.00
2023-02-17T05:14:20.824Z,98.10
2023-02-17T05:14:52.587Z,98.00
2023-02-17T05:15:24.440Z,98.00
2023-02-17T05:15:56.261Z,98.00
2023-02-17T05:16:28.034Z,98.00
2023-02-17T05:16:59.767Z,98.00
2023-02-17T05:17:31.578Z,98.00
2023-02-17T05:18:03.599Z,98.00
2023-02-17T05:18:35.496Z,98.00
2023-02-17T05:19:07.339Z,98.00
2023-02-17T05:19:39.125Z,98.00
2023-02-17T05:20:11.737Z,98.00
2023-02-17T05:20:43.530Z,98.00
2023-02-17T05:21:15.313Z,98.30
2023-02-17T05:21:47.258Z,98.20
2023-02-17T05:22:20.069Z,98.00
2023-02-17T05:22:51.835Z,98.00
2023-02-17T05:23:23.838Z,98.00
2023-02-17T05:23:55.824Z,98.00
2023-02-17T05:24:27.994Z,98.00
2023-02-17T05:24:59.857Z,98.00
2023-02-17T05:25:31.736Z,98.10
2023-02-17T05:26:04.034Z,98.00
2023-02-17T05:26:35.993Z,98.00
2023-02-17T05:27:07.813Z,98.00
2023-02-17T05:27:39.609Z,98.00
2023-02-17T05:28:11.393Z,98.10
2023-02-17T05:28:43.175Z,98.10
2023-02-17T05:29:15.042Z,98.00
2023-02-17T05:29:46.972Z,98.00
2023-02-17T05:30:19.188Z,97.90
2023-02-17T05:30:51.122Z,97.90
2023-02-17T05:31:22.999Z,97.90
2023-02-17T05:31:54.837Z,98.10
2023-02-17T05:32:26.873Z,97.90
2023-02-17T05:32:58.667Z,98.10
2023-02-17T05:33:30.906Z,97.90
2023-02-17T05:34:02.993Z,97.90
2023-02-17T05:34:35.232Z,98.00
2023-02-17T05:35:07.472Z,97.90
2023-02-17T05:35:39.206Z,97.90
2023-02-17T05:36:11.842Z,98.10
2023-02-17T05:36:43.654Z,97.90
2023-02-17T05:37:15.430Z,97.90
2023-02-17T05:37:47.279Z,97.90
2023-02-17T05:38:20.241Z,98.00
2023-02-17T05:38:52.656Z,97.90
2023-02-17T05:39:24.451Z,97.90
2023-02-17T05:39:56.224Z,97.90
2023-02-17T05:40:27.992Z,97.90
2023-02-17T05:40:59.793Z,97.90
2023-02-17T05:41:31.566Z,97.90
2023-02-17T05:42:03.410Z,98.00
2023-02-17T05:42:35.241Z,97.90
2023-02-17T05:43:06.984Z,97.90
2023-02-17T05:43:38.764Z,97.90
2023-02-17T05:44:10.644Z,97.90
2023-02-17T05:44:42.523Z,97.90
2023-02-17T05:45:14.494Z,97.90
2023-02-17T05:45:46.309Z,97.80
2023-02-17T05:46:18.158Z,98.00
2023-02-17T05:46:50.098Z,98.00
2023-02-17T05:47:22.717Z,97.80
2023-02-17T05:47:54.454Z,97.80
2023-02-17T05:48:26.190Z,97.80
2023-02-17T05:48:57.957Z,97.80
2023-02-17T05:49:29.851Z,97.90
2023-02-17T05:50:02.108Z,97.80
2023-02-17T05:50:33.843Z,97.80
2023-02-17T05:51:07.900Z,98.00
2023-02-17T05:51:40.215Z,97.90
2023-02-17T05:52:11.983Z,97.80
2023-02-17T05:52:43.712Z,97.80
2023-02-17T05:53:15.551Z,97.80
2023-02-17T05:53:47.253Z,97.80
2023-02-17T05:54:19.139Z,97.80
2023-02-17T05:54:51.305Z,98.00
2023-02-17T05:55:23.300Z,98.00
2023-02-17T05:55:55.274Z,97.90
2023-02-17T05:56:27.125Z,97.90
2023-02-17T05:56:58.972Z,97.80
2023-02-17T05:57:31.631Z,98.00
2023-02-17T05:58:03.487Z,97.80
2023-02-17T05:58:35.325Z,97.80
2023-02-17T05:59:07.142Z,98.00
2023-02-17T05:59:39.049Z,97.90
2023-02-17T06:00:11.688Z,97.80
2023-02-17T06:00:46.255Z,97.80
2023-02-17T06:01:18.072Z,97.80
2023-02-17T06:01:50.027Z,97.10
2023-02-17T06:02:21.849Z,97.90
2023-02-17T06:02:53.678Z,98.00
2023-02-17T06:03:25.545Z,97.90
2023-02-17T06:03:57.351Z,97.90
2023-02-17T06:04:29.197Z,97.90
2023-02-17T06:05:01.186Z,97.80
2023-02-17T06:05:33.063Z,98.00
2023-02-17T06:06:06.315Z,97.90
2023-02-17T06:06:38.272Z,97.80
2023-02-17T06:07:10.054Z,98.00
2023-02-17T06:07:42.876Z,97.80
2023-02-17T06:08:14.657Z,97.80
2023-02-17T06:08:46.401Z,97.80
2023-02-17T06:09:18.573Z,97.80
2023-02-17T06:09:50.322Z,97.80
2023-02-17T06:10:22.238Z,97.90
2023-02-17T06:10:54.618Z,97.80
2023-02-17T06:11:26.470Z,98.00
2023-02-17T06:11:58.251Z,97.80
2023-02-17T06:12:30.065Z,98.00
2023-02-17T06:13:01.854Z,97.80
2023-02-17T06:13:33.736Z,97.80
2023-02-17T06:14:05.624Z,97.80
2023-02-17T06:14:37.330Z,97.80
2023-02-17T06:15:09.439Z,97.80
2023-02-17T06:15:41.480Z,97.80
2023-02-17T06:16:13.334Z,97.80
2023-02-17T06:16:45.111Z,97.80
2023-02-17T06:17:16.909Z,98.00
2023-02-17T06:17:48.681Z,97.80
2023-02-17T06:18:20.671Z,97.80
2023-02-17T06:18:52.398Z,97.90
2023-02-17T06:19:24.262Z,98.00
2023-02-17T06:19:56.155Z,97.80
2023-02-17T06:20:28.229Z,98.00
2023-02-17T06:21:00.124Z,98.00
2023-02-17T06:21:33.369Z,97.80
2023-02-17T06:22:05.416Z,97.80
2023-02-17T06:22:37.499Z,97.80
2023-02-17T06:23:09.524Z,97.80
2023-02-17T06:23:41.297Z,97.90
2023-02-17T06:24:13.089Z,97.80
2023-02-17T06:24:44.959Z,97.80
2023-02-17T06:25:16.889Z,97.80
2023-02-17T06:25:48.628Z,97.80
2023-02-17T06:26:20.452Z,97.80
2023-02-17T06:26:52.231Z,97.80
2023-02-17T06:27:24.245Z,97.80
2023-02-17T06:27:56.064Z,97.80
2023-02-17T06:28:27.954Z,98.00
2023-02-17T06:28:59.741Z,97.90
2023-02-17T06:29:31.649Z,97.90
2023-02-17T06:30:04.474Z,97.80
2023-02-17T06:30:36.622Z,97.80
2023-02-17T06:31:08.543Z,97.80
2023-02-17T06:31:40.410Z,97.80
2023-02-17T06:32:12.357Z,97.80
2023-02-17T06:32:44.200Z,97.80
2023-02-17T06:33:15.919Z,97.80
2023-02-17T06:33:48.067Z,97.80
2023-02-17T06:34:19.917Z,97.80
2023-02-17T06:34:51.787Z,97.80
2023-02-17T06:35:23.692Z,97.80
2023-02-17T06:35:55.797Z,97.80
2023-02-17T06:36:27.592Z,97.90
2023-02-17T06:36:59.374Z,97.80
2023-02-17T06:37:31.191Z,97.80
2023-02-17T06:38:03.417Z,97.70
2023-02-17T06:38:35.180Z,97.90
2023-02-17T06:39:07.024Z,97.80
2023-02-17T06:39:38.920Z,97.80
2023-02-17T06:40:11.409Z,97.80
2023-02-17T06:40:43.214Z,97.80
2023-02-17T06:41:15.332Z,97.80
2023-02-17T06:41:47.246Z,97.80
2023-02-17T06:42:19.014Z,97.80
2023-02-17T06:42:50.755Z,97.80
2023-02-17T06:43:22.479Z,98.00
2023-02-17T06:43:54.313Z,98.00
2023-02-17T06:44:26.561Z,98.10
2023-02-17T06:45:00.816Z,97.80
2023-02-17T06:45:32.643Z,97.80
2023-02-17T06:46:04.936Z,97.80
2023-02-17T06:46:36.943Z,97.80
2023-02-17T06:47:08.978Z,97.80
2023-02-17T06:47:40.817Z,97.80
2023-02-17T06:48:12.763Z,97.80
2023-02-17T06:48:44.574Z,97.80
2023-02-17T06:49:16.694Z,97.80
2023-02-17T06:49:48.403Z,97.80
2023-02-17T06:50:21.495Z,97.70
2023-02-17T06:50:53.286Z,97.80
2023-02-17T06:51:25.073Z,97.80
2023-02-17T06:51:56.850Z,97.80
2023-02-17T06:52:28.710Z,97.80
2023-02-17T06:53:00.702Z,97.80
2023-02-17T06:53:32.539Z,97.90
2023-02-17T06:54:04.565Z,97.90
2023-02-17T06:54:36.344Z,97.90
2023-02-17T06:55:08.518Z,97.90
2023-02-17T06:55:40.455Z,97.90
2023-02-17T06:56:12.193Z,97.90
2023-02-17T06:56:44.058Z,97.90
2023-02-17T06:57:16.606Z,97.90
2023-02-17T06:57:48.403Z,97.90
2023-02-17T06:58:20.228Z,98.10
2023-02-17T06:58:51.962Z,97.90
2023-02-17T06:59:24.003Z,97.90
2023-02-17T06:59:55.719Z,97.90
2023-02-17T07:00:27.839Z,97.90
2023-02-17T07:00:59.814Z,97.90
2023-02-17T07:01:31.634Z,97.80
2023-02-17T07:02:03.543Z,97.90
2023-02-17T07:02:38.848Z,98.10
2023-02-17T07:03:10.939Z,97.90
2023-02-17T07:03:42.811Z,97.90
2023-02-17T07:04:14.608Z,97.90
2023-02-17T07:04:46.342Z,98.00
2023-02-17T07:05:18.155Z,98.10
2023-02-17T07:05:50.041Z,97.90
2023-02-17T07:06:23.409Z,97.90
2023-02-17T07:06:55.225Z,97.90
2023-02-17T07:07:27.274Z,97.90
2023-02-17T07:07:59.155Z,97.90
2023-02-17T07:08:31.999Z,98.10
2023-02-17T07:09:04.630Z,97.90
2023-02-17T07:09:38.450Z,98.30
2023-02-17T07:10:10.837Z,97.90
2023-02-17T07:10:42.997Z,97.90
2023-02-17T07:11:15.945Z,97.90
2023-02-17T07:11:48.274Z,97.90
2023-02-17T07:12:19.997Z,97.90
2023-02-17T07:12:51.763Z,97.90
2023-02-17T07:13:24.101Z,98.30
2023-02-17T07:13:55.840Z,97.90
2023-02-17T07:14:28.409Z,98.10
2023-02-17T07:15:00.152Z,97.90
2023-02-17T07:15:32.060Z,98.20
2023-02-17T07:16:04.968Z,98.00
2023-02-17T07:16:37.091Z,97.90
2023-02-17T07:17:08.875Z,97.90
2023-02-17T07:17:40.885Z,97.90